Skip Navigation Links Skip Navigation Links

Current Weather

Fukuoka, Japan

For information only: do not use for flight planning or navigation.
Latest weather
Observation time Tuesday, October 19, 2021 4:30 AM JST
Local time Tuesday, October 19, 2021 4:46 AM JST
Flight conditions Visual Meteorological Conditions
Winds
Wind direction South-Southeast (150°)
Wind speed 6 mph
Visibility 6.2 mi.
Sky condition
Ceiling unlimited
Temperature 54°F
Dewpoint 48°F
Altimeter 30.06 in.Hg
Derived measurements
Relative humidity 82%
Density altitude -315 ft.
Remarks
Fully automated report.
No significant changes expected in the next two hours.
METAR RJFF 181930Z AUTO 15005KT 9999 NSC 12/09 Q1018 NOSIG RMK A3006

Settings

Location code

InnerDrive.Weather 4.0.6770.0 Release CLR 4.0.30319.42000
Copyright ©2018 Inner Drive Technology. All rights reserved. Portions Copyright ©1986-2018 David Braverman.

Find weather

Site navigation


Skip Navigation Links

Place info

Page info

PayPal - The safer, easier way to pay online!

Return home.

Copyright ©2021 Inner Drive Technology. Purveyors of fine, hand-crafted computer software. Page printed 2021-10-18T19:46:25 UTC.